Time;durP1;ratioP1;P1;durP2;ratioP2;P2;SDS_P1;SDS_P2;PMS_P1;PMS_P2;Temp;Humidity;BMP_temperature;BMP_pressure;BME280_temperature;BME280_humidity;BME280_pressure;Samples;Min_cycle;Max_cycle;Signal;HPM_P1;HPM_P2
2022/03/08 00:16:15;;;;;;;14.63;7.20;;;;;;;-2.05;100.00;101073.00;15349599;19;20485;-50
2022/03/08 00:36:11;;;;;;;14.10;7.73;;;;;;;-2.04;100.00;101038.16;15348746;19;20979;-49
2022/03/08 00:41:16;;;;;;;12.47;6.90;;;;;;;-2.02;100.00;101041.63;15343457;19;20938;-50
2022/03/08 01:16:05;;;;;;;9.43;5.93;;;;;;;-2.00;100.00;101037.28;15198668;19;2953323;-51
2022/03/08 01:21:14;;;;;;;11.27;6.47;;;;;;;-2.03;100.00;101039.88;15353713;19;20144;-52
2022/03/08 01:41:09;;;;;;;11.50;7.17;;;;;;;-2.29;100.00;101033.81;15349478;19;20448;-52
2022/03/08 02:16:01;;;;;;;12.37;6.93;;;;;;;-2.63;100.00;101044.28;15325738;19;20447;-51
2022/03/08 02:31:00;;;;;;;10.83;6.20;;;;;;;-2.79;100.00;101047.75;15348405;19;20475;-51
2022/03/08 02:41:00;;;;;;;12.40;6.73;;;;;;;-2.76;100.00;101044.25;15335289;19;20506;-51
2022/03/08 02:51:00;;;;;;;11.10;6.37;;;;;;;-2.81;100.00;101062.53;15349577;19;20505;-52
2022/03/08 03:05:58;;;;;;;10.27;6.23;;;;;;;-3.02;100.00;101073.78;15193991;19;2930261;-49
2022/03/08 04:00:33;;;;;;;29.50;16.60;;;;;;;-3.23;100.00;101092.00;15347944;19;20482;-51
2022/03/08 05:25:08;;;;;;;12.63;7.97;;;;;;;-3.75;100.00;101143.03;15348342;19;20508;-50
2022/03/08 05:35:11;;;;;;;15.73;10.17;;;;;;;-3.00;100.00;101142.56;15330838;19;20954;-50
2022/03/08 06:49:36;;;;;;;30.10;19.90;;;;;;;-1.23;100.00;101206.38;15336704;19;20481;-54
2022/03/08 07:04:34;;;;;;;24.60;17.43;;;;;;;-1.11;100.00;101231.66;15178766;19;2948914;-52
2022/03/08 07:19:34;;;;;;;24.47;18.60;;;;;;;-0.78;100.00;101217.56;15347574;19;20470;-50
2022/03/08 07:29:36;;;;;;;20.33;16.60;;;;;;;-0.69;100.00;101238.50;15320620;19;20463;-52
2022/03/08 08:09:20;;;;;;;19.50;15.40;;;;;;;-0.42;100.00;101264.63;15194079;19;2975597;-51
2022/03/08 08:19:22;;;;;;;18.83;15.67;;;;;;;-0.09;100.00;101267.94;15182755;19;2936418;-50
2022/03/08 08:39:20;;;;;;;21.97;17.90;;;;;;;0.70;100.00;101256.88;15320887;19;20486;-52
2022/03/08 08:44:26;;;;;;;31.70;23.97;;;;;;;0.83;100.00;101250.63;15350820;19;20148;-54
2022/03/08 08:49:31;;;;;;;25.97;19.70;;;;;;;0.80;100.00;101248.00;15350096;19;20145;-53
2022/03/08 09:04:36;;;;;;;20.47;16.13;;;;;;;1.59;100.00;101255.00;15330837;19;21144;-50
2022/03/08 09:39:26;;;;;;;9.07;8.17;;;;;;;2.49;100.00;101216.84;15341439;19;20446;-52
2022/03/08 10:09:20;;;;;;;7.50;6.73;;;;;;;3.90;100.00;101200.81;15315808;19;20470;-52
2022/03/08 10:24:18;;;;;;;5.43;4.95;;;;;;;5.06;100.00;101189.97;15189300;19;2973915;-53
2022/03/08 10:29:43;;;;;;;7.67;6.07;;;;;;;5.66;100.00;101189.97;15316645;19;20140;-54
2022/03/08 10:34:50;;;;;;;15.33;13.03;;;;;;;6.23;100.00;101182.91;15336584;19;20148;-53
2022/03/08 10:44:53;;;;;;;5.43;4.93;;;;;;;6.50;100.00;101189.97;15341383;19;20502;-51
2022/03/08 10:50:02;;;;;;;5.77;5.17;;;;;;;6.52;100.00;101172.19;15326147;19;20197;-52
2022/03/08 10:55:26;;;;;;;27.50;7.53;;;;;;;6.40;100.00;101177.94;15327156;19;20653;-52
2022/03/08 11:00:53;;;;;;;6.10;5.50;;;;;;;6.20;100.00;101164.47;15345110;19;20467;-52
2022/03/08 11:10:56;;;;;;;5.30;4.43;;;;;;;6.25;100.00;101163.41;15330084;19;20432;-52
2022/03/08 11:16:02;;;;;;;4.63;4.23;;;;;;;6.95;100.00;101160.09;15317869;19;20600;-52
2022/03/08 11:21:07;;;;;;;4.57;4.17;;;;;;;6.71;100.00;101160.06;15342652;19;20152;-51
2022/03/08 11:31:06;;;;;;;3.87;3.40;;;;;;;5.31;100.00;101146.00;15189408;19;2938776;-51
2022/03/08 12:00:59;;;;;;;3.50;3.20;;;;;;;5.11;100.00;101121.91;15312069;19;20803;-52
2022/03/08 12:06:18;;;;;;;4.00;3.23;;;;;;;5.30;100.00;101148.72;15344102;19;20148;-51
2022/03/08 12:11:35;;;;;;;3.67;3.37;;;;;;;5.45;100.00;101137.66;15345758;19;20145;-51
2022/03/08 12:17:20;;;;;;;3.80;3.17;;;;;;;5.80;100.00;101128.59;15341108;19;20156;-51
2022/03/08 12:42:37;;;;;;;3.90;2.60;;;;;;;5.62;100.00;101139.78;15317454;19;20580;-53
2022/03/08 12:48:25;;;;;;;3.97;2.90;;;;;;;5.97;100.00;101136.94;15329535;19;20145;-51
2022/03/08 13:08:20;;;;;;;2.43;2.20;;;;;;;6.88;100.00;101138.25;15161053;19;2942383;-51
2022/03/08 13:13:26;;;;;;;3.93;2.40;;;;;;;6.97;100.00;101131.72;15345217;19;20655;-51
2022/03/08 13:18:36;;;;;;;2.83;1.80;;;;;;;6.54;100.00;101127.06;15345655;19;20149;-54
2022/03/08 13:23:44;;;;;;;2.73;2.00;;;;;;;6.48;100.00;101128.16;15345944;19;20153;-50
2022/03/08 13:28:51;;;;;;;3.37;2.13;;;;;;;6.59;100.00;101135.75;15310840;19;20594;-52
2022/03/08 13:33:56;;;;;;;3.20;1.97;;;;;;;6.79;100.00;101128.81;15334349;19;20180;-51
2022/03/08 13:39:01;;;;;;;2.33;2.10;;;;;;;6.78;100.00;101127.06;15344719;19;20161;-52
2022/03/08 13:44:13;;;;;;;3.13;1.80;;;;;;;6.98;100.00;101118.41;15343299;19;20139;-52
2022/03/08 13:54:15;;;;;;;6.23;3.60;;;;;;;6.84;100.00;101124.22;15319208;19;20464;-51
2022/03/08 14:04:28;;;;;;;4.07;3.00;;;;;;;6.70;100.00;101123.84;15340092;19;20477;-53
2022/03/08 14:24:25;;;;;;;9.53;4.57;;;;;;;7.11;100.00;101118.81;15344227;19;21534;-51
2022/03/08 14:29:30;;;;;;;6.77;3.93;;;;;;;7.13;100.00;101116.94;15351781;19;20223;-52
2022/03/08 14:34:36;;;;;;;24.80;5.90;;;;;;;6.98;100.00;101114.88;15325114;19;20151;-50
2022/03/08 14:39:44;;;;;;;7.00;3.73;;;;;;;6.85;100.00;101115.34;15332574;19;20146;-52
2022/03/08 14:54:41;;;;;;;3.37;2.00;;;;;;;6.74;100.00;101106.03;15336782;19;20836;-53
2022/03/08 15:04:44;;;;;;;4.10;3.27;;;;;;;6.35;100.00;101110.94;15341440;19;20463;-50
2022/03/08 15:14:46;;;;;;;7.00;3.43;;;;;;;6.30;100.00;101119.03;15341946;19;20507;-57
2022/03/08 15:19:51;;;;;;;13.23;6.00;;;;;;;6.09;100.00;101120.63;15319924;19;20153;-54
2022/03/08 15:24:55;;;;;;;6.60;4.00;;;;;;;6.11;100.00;101113.50;15330005;19;20154;-56
2022/03/08 15:30:00;;;;;;;3.70;2.70;;;;;;;6.22;100.00;101109.63;15345535;19;20217;-56
2022/03/08 15:49:49;;;;;;;10.80;7.07;;;;;;;5.71;100.00;101102.44;15182806;19;2977733;-51
2022/03/08 15:54:54;;;;;;;11.70;5.17;;;;;;;5.35;100.00;101099.13;15346693;19;20152;-51
2022/03/08 15:59:59;;;;;;;23.80;12.27;;;;;;;5.08;100.00;101091.09;15345223;19;20502;-52
2022/03/08 16:05:05;;;;;;;10.37;5.97;;;;;;;4.84;100.00;101091.81;15318709;19;20506;-52
2022/03/08 16:15:06;;;;;;;7.47;5.60;;;;;;;4.74;100.00;101100.91;15190537;19;2929992;-51
2022/03/08 16:20:12;;;;;;;8.40;6.03;;;;;;;4.43;100.00;101090.34;15346367;19;20598;-53
2022/03/08 16:25:16;;;;;;;9.73;4.87;;;;;;;4.40;100.00;101106.25;15333377;19;20144;-54
2022/03/08 16:50:08;;;;;;;6.83;5.63;;;;;;;3.77;100.00;101084.97;15158194;19;2961493;-55
2022/03/08 16:55:15;;;;;;;29.70;19.33;;;;;;;3.58;100.00;101087.19;15326949;19;20420;-53
2022/03/08 17:00:20;;;;;;;11.43;9.93;;;;;;;3.50;100.00;101070.69;15342888;19;20139;-51
2022/03/08 17:10:23;;;;;;;8.10;5.00;;;;;;;3.46;100.00;101092.75;15322875;19;20474;-53
2022/03/08 17:20:22;;;;;;;11.68;6.30;;;;;;;3.63;100.00;101103.78;15183702;19;2978868;-54
2022/03/08 17:25:27;;;;;;;11.07;6.03;;;;;;;3.80;100.00;101100.75;15345766;19;20140;-55
2022/03/08 17:30:31;;;;;;;32.80;19.40;;;;;;;3.95;100.00;101098.59;15336111;19;20155;-59
2022/03/08 18:05:45;;;;;;;48.90;28.03;;;;;;;4.23;100.00;101111.09;15152010;19;2944216;-52
2022/03/08 18:15:44;;;;;;;19.77;13.83;;;;;;;4.27;100.00;101115.41;15120269;19;3629116;-54
2022/03/08 18:20:49;;;;;;;24.73;14.43;;;;;;;4.26;100.00;101113.66;15284895;19;20944;-53
2022/03/08 18:45:45;;;;;;;13.93;7.70;;;;;;;4.14;100.00;101116.63;15275521;19;20624;-54
2022/03/08 19:25:41;;;;;;;38.03;18.00;;;;;;;4.04;100.00;101117.75;15281398;19;20450;-53
2022/03/08 20:10:23;;;;;;;13.33;7.80;;;;;;;4.15;100.00;101143.00;15285351;19;21156;-50
2022/03/08 20:20:29;;;;;;;11.23;7.43;;;;;;;4.20;100.00;101145.53;15295822;19;20808;-53
2022/03/08 20:45:45;;;;;;;14.77;9.23;;;;;;;4.12;100.00;101127.22;15297436;19;20481;-54
2022/03/08 20:50:50;;;;;;;15.83;9.30;;;;;;;4.08;100.00;101132.63;15311294;19;20182;-52
2022/03/08 20:55:55;;;;;;;17.30;10.57;;;;;;;4.02;100.00;101135.41;15290495;19;20160;-51
2022/03/08 21:01:01;;;;;;;16.47;10.87;;;;;;;3.99;100.00;101137.22;15288287;19;20156;-52
2022/03/08 21:06:06;;;;;;;16.63;10.07;;;;;;;3.93;100.00;101118.91;15308213;19;20159;-51
2022/03/08 21:16:10;;;;;;;19.40;11.93;;;;;;;3.90;100.00;101118.97;15299142;19;20506;-55
2022/03/08 21:21:14;;;;;;;20.00;11.47;;;;;;;3.82;100.00;101123.56;15277485;19;20155;-52
2022/03/08 21:26:19;;;;;;;17.17;9.93;;;;;;;3.76;100.00;101122.81;15299653;19;20149;-53
2022/03/08 21:36:18;;;;;;;17.17;10.67;;;;;;;3.68;100.00;101108.94;15163450;19;2982878;-51
2022/03/08 21:56:10;;;;;;;16.30;9.63;;;;;;;3.51;100.00;101133.06;15345397;19;20494;-51
2022/03/08 22:06:12;;;;;;;14.17;9.57;;;;;;;3.46;100.00;101145.53;15313813;19;20471;-54
2022/03/08 22:11:17;;;;;;;16.23;9.90;;;;;;;3.53;100.00;101145.34;15341758;19;20150;-53
2022/03/08 22:16:21;;;;;;;15.07;9.33;;;;;;;3.62;100.00;101152.22;15352390;19;20144;-51
2022/03/08 22:26:27;;;;;;;13.90;8.57;;;;;;;3.73;100.00;101150.19;15323271;19;20479;-54
2022/03/08 23:01:16;;;;;;;14.93;7.27;;;;;;;3.76;100.00;101128.09;15346548;19;20520;-52
2022/03/08 23:06:21;;;;;;;11.23;7.40;;;;;;;3.77;100.00;101125.44;15352548;19;20150;-52
2022/03/08 23:16:20;;;;;;;11.47;7.27;;;;;;;3.79;100.00;101123.63;15174500;19;2962459;-52
2022/03/08 23:26:19;;;;;;;10.53;6.83;;;;;;;3.78;100.00;101113.97;15193900;19;2987035;-53
2022/03/08 23:36:21;;;;;;;10.83;6.77;;;;;;;3.80;100.00;101104.25;15318978;19;20498;-54
2022/03/08 23:46:23;;;;;;;14.20;9.57;;;;;;;3.80;100.00;101106.88;15348061;19;20437;-55
2022/03/08 23:56:25;;;;;;;11.77;7.63;;;;;;;3.71;100.00;101106.25;15318311;19;20484;-52
